Temp: 2.0°C   Baro: 1027.0mb
  Wind: 0.9mph   Dir: ESE (123°)
  Rain: 0.0mm (0.0mm/hr)
  Solar: 88W/m2  Hum: 97%

Historic data

Bath Spa Weather Station Historical Data
Daily Summary for August 07, 2022 Units:  English    Metric   Both
Daily Weekly Monthly Yearly Custom
  High: Low: Average:
Temperature: 79.2 °F 50.7 °F 65.8 °F
Dew Point: 59.7 °F 46.8 °F 53.7 °F
Humidity: 87% 42.8% 68%
Wind Speed: 7.2mph 0mph 2mph
Wind Gust: 14mph - -
Wind- - West
Pressure: 30.38 in 30.25 in -
Precipitation: 0.00 in    
Historical Graphs
 
 
Tabular Data for August 07, 2022
Time Temperature Dew Point Pressure Wind Wind Speed Wind Gust Humidity Rainfall Rate (Hourly) solar
00:09 58.6 °F 52.9 °F 30.37 in WNW 0.2 mph 3 mph 80.8% 0.00 in 0 W/m2
00:14 58.5 °F 52.8 °F 30.37 in WNW 0.6 mph 2 mph 81% 0.00 in 0 W/m2
00:19 58.4 °F 52.7 °F 30.38 in WNW 0.4 mph 2 mph 81.2% 0.00 in 0 W/m2
00:24 58.2 °F 52.8 °F 30.38 in WNW 0.4 mph 2 mph 82% 0.00 in 0 W/m2
00:29 57.8 °F 52.5 °F 30.38 in Calm   2 mph 82% 0.00 in 0 W/m2
00:34 57.7 °F 52.3 °F 30.38 in Calm     82% 0.00 in 0 W/m2
00:39 57.6 °F 52.3 °F 30.38 in WNW 0.2 mph 1 mph 82.2% 0.00 in 0 W/m2
00:44 57.6 °F 52.6 °F 30.38 in WNW 0.2 mph 2 mph 83% 0.00 in 0 W/m2
00:49 57.6 °F 52.5 °F 30.38 in WNW 0.4 mph 1 mph 83% 0.00 in 0 W/m2
00:54 57.4 °F 52.3 °F 30.38 in WNW 0.2 mph 2 mph 83% 0.00 in 0 W/m2
00:59 57.4 °F 52.3 °F 30.38 in Calm   2 mph 83% 0.00 in 0 W/m2
01:04 57 °F 52 °F 30.38 in WNW 0.2 mph 2 mph 83% 0.00 in 0 W/m2
01:09 57 °F 52 °F 30.38 in Calm     83% 0.00 in 0 W/m2
01:14 56.8 °F 51.8 °F 30.37 in Calm     83% 0.00 in 0 W/m2
01:19 56.8 °F 52 °F 30.37 in WNW 0.7 mph 2 mph 84% 0.00 in 0 W/m2
01:24 56.7 °F 51.8 °F 30.37 in WNW 0.7 mph 2 mph 84% 0.00 in 0 W/m2
01:29 56.5 °F 51.6 °F 30.37 in WNW 0.2 mph 2 mph 84% 0.00 in 0 W/m2
01:34 56.5 °F 51.6 °F 30.37 in WNW 0.5 mph 2 mph 84% 0.00 in 0 W/m2
01:39 56.5 °F 51.6 °F 30.37 in WNW 0.9 mph 2 mph 84% 0.00 in 0 W/m2
01:44 56.3 °F 51.4 °F 30.37 in WNW 0.4 mph 1 mph 84% 0.00 in 0 W/m2
01:49 56.1 °F 51.4 °F 30.37 in WNW 0.5 mph 4 mph 84% 0.00 in 0 W/m2
01:54 56 °F 51.4 °F 30.37 in Calm   1 mph 84% 0.00 in 0 W/m2
01:59 55.9 °F 51.3 °F 30.37 in WNW 0.4 mph 2 mph 84% 0.00 in 0 W/m2
02:04 55.9 °F 51.3 °F 30.37 in WNW 0.4 mph 2 mph 84% 0.00 in 0 W/m2
02:08 55.8 °F 51.2 °F 30.37 in Calm   2 mph 84% 0.00 in 0 W/m2
02:14 55.8 °F 51.1 °F 30.37 in WNW 0.2 mph 1 mph 84% 0.00 in 0 W/m2
02:19 55.8 °F 51.1 °F 30.37 in WNW 0.2 mph 1 mph 84% 0.00 in 0 W/m2
02:24 55.7 °F 51 °F 30.37 in WNW 0.4 mph 2 mph 84% 0.00 in 0 W/m2
02:29 55.6 °F 50.9 °F 30.37 in WNW 0.4 mph 1 mph 84% 0.00 in 0 W/m2
02:34 55.6 °F 50.6 °F 30.36 in WNW 0.8 mph 2 mph 83.2% 0.00 in 0 W/m2
02:39 55.3 °F 50.3 °F 30.37 in WNW 0.8 mph 2 mph 83% 0.00 in 0 W/m2
02:44 55.1 °F 50.3 °F 30.37 in WNW 0.8 mph 2 mph 83.6% 0.00 in 0 W/m2
02:49 54.9 °F 50.2 °F 30.37 in WNW 0.5 mph 2 mph 84% 0.00 in 0 W/m2
02:54 54.8 °F 50.1 °F 30.37 in WNW 0.2 mph 2 mph 84% 0.00 in 0 W/m2
02:59 54.7 °F 50 °F 30.37 in WNW 0.2 mph 2 mph 84% 0.00 in 0 W/m2
03:04 54.5 °F 49.8 °F 30.37 in Calm     84% 0.00 in 0 W/m2
03:09 54.3 °F 49.6 °F 30.37 in Calm     84% 0.00 in 0 W/m2
03:14 54.3 °F 49.6 °F 30.37 in Calm     84% 0.00 in 0 W/m2
03:19 54.1 °F 49.5 °F 30.37 in WNW 0.4 mph 2 mph 84% 0.00 in 0 W/m2
03:24 54 °F 49.3 °F 30.37 in Calm     84% 0.00 in 0 W/m2
03:29 53.9 °F 49.2 °F 30.37 in Calm     84% 0.00 in 0 W/m2
03:34 53.8 °F 49.1 °F 30.37 in Calm     84% 0.00 in 0 W/m2
03:39 53.7 °F 49 °F 30.37 in WNW 0.2 mph 1 mph 84% 0.00 in 0 W/m2
03:44 53.5 °F 49 °F 30.37 in Calm     84.6% 0.00 in 0 W/m2
03:49 53.4 °F 49 °F 30.37 in Calm     84.8% 0.00 in 0 W/m2
03:54 53.4 °F 48.8 °F 30.37 in Calm     84.2% 0.00 in 0 W/m2
03:59 53.2 °F 48.9 °F 30.37 in Calm     85% 0.00 in 0 W/m2
04:03 53.2 °F 48.9 °F 30.37 in Calm     85% 0.00 in 0 W/m2
04:09 53.1 °F 48.8 °F 30.37 in Calm     85% 0.00 in 0 W/m2
04:14 53.1 °F 48.8 °F 30.37 in Calm     85% 0.00 in 0 W/m2
04:19 53.1 °F 48.7 °F 30.37 in Calm     85% 0.00 in 0 W/m2
04:24 53 °F 48.7 °F 30.36 in Calm     85% 0.00 in 0 W/m2
04:29 52.9 °F 48.6 °F 30.36 in Calm     85% 0.00 in 0 W/m2
04:34 52.9 °F 48.6 °F 30.36 in Calm     85% 0.00 in 0 W/m2
04:39 52.7 °F 48.4 °F 30.36 in Calm     85% 0.00 in 0 W/m2
04:44 52.5 °F 48.2 °F 30.36 in Calm     85% 0.00 in 0 W/m2
04:49 52.5 °F 48.2 °F 30.36 in Calm     85% 0.00 in 0 W/m2
04:54 52.3 °F 48 °F 30.36 in Calm     85% 0.00 in 0 W/m2
04:59 52.3 °F 47.9 °F 30.36 in Calm     85% 0.00 in 0 W/m2
05:04 52.1 °F 47.7 °F 30.36 in Calm     85% 0.00 in 0 W/m2
05:09 51.9 °F 47.6 °F 30.36 in Calm     85.2% 0.00 in 0 W/m2
05:14 51.6 °F 47.5 °F 30.36 in Calm     86% 0.00 in 0 W/m2
05:19 51.6 °F 47.5 °F 30.36 in Calm     86% 0.00 in 0 W/m2
05:24 51.4 °F 47.5 °F 30.36 in Calm     86% 0.00 in 0 W/m2
05:29 51.3 °F 47.3 °F 30.36 in Calm     86% 0.00 in 0 W/m2
05:34 51.3 °F 47.3 °F 30.36 in Calm     86% 0.00 in 0 W/m2
05:39 51.3 °F 47.3 °F 30.36 in Calm     86% 0.00 in 0 W/m2
05:44 51.3 °F 47.3 °F 30.36 in Calm     86% 0.00 in 5 W/m2
05:49 51.2 °F 47.2 °F 30.36 in Calm     86% 0.00 in 7 W/m2
05:54 51.1 °F 47.1 °F 30.36 in Calm     86% 0.00 in 9 W/m2
05:59 51.1 °F 47.1 °F 30.36 in Calm     86% 0.00 in 11 W/m2
06:04 50.9 °F 47 °F 30.36 in Calm     86.4% 0.00 in 12 W/m2
06:09 50.7 °F 46.8 °F 30.36 in Calm     86% 0.00 in 14 W/m2
06:14 50.7 °F 46.8 °F 30.36 in Calm     86.2% 0.00 in 16 W/m2
06:19 50.7 °F 46.9 °F 30.36 in Calm     86.8% 0.00 in 18 W/m2
06:24 50.7 °F 46.9 °F 30.36 in Calm     87% 0.00 in 19 W/m2
06:29 50.7 °F 46.9 °F 30.36 in Calm     87% 0.00 in 19 W/m2
06:34 50.7 °F 46.9 °F 30.36 in Calm     87% 0.00 in 21 W/m2
06:39 50.8 °F 47 °F 30.36 in Calm     87% 0.00 in 23 W/m2
06:44 51.1 °F 47.3 °F 30.36 in Calm     87% 0.00 in 23 W/m2
06:49 51.1 °F 47.3 °F 30.36 in Calm     87% 0.00 in 25 W/m2
06:53 51.3 °F 47.5 °F 30.37 in Calm     87% 0.00 in 26 W/m2
06:59 51.4 °F 47.6 °F 30.37 in Calm     87% 0.00 in 28 W/m2
07:04 51.5 °F 47.7 °F 30.37 in Calm     87% 0.00 in 35 W/m2
07:09 51.7 °F 47.9 °F 30.36 in Calm     87% 0.00 in 44 W/m2
07:14 52 °F 48.2 °F 30.37 in Calm     87% 0.00 in 56 W/m2
07:19 52.3 °F 48.2 °F 30.36 in Calm     86.2% 0.00 in 69 W/m2
07:24 52.5 °F 48.4 °F 30.36 in Calm     86% 0.00 in 84 W/m2
07:29 52.7 °F 48.6 °F 30.37 in Calm     86% 0.00 in 102 W/m2
07:34 53.1 °F 48.9 °F 30.37 in Calm     86% 0.00 in 118 W/m2
07:39 53.6 °F 49.4 °F 30.37 in Calm     86% 0.00 in 135 W/m2
07:44 53.9 °F 49.6 °F 30.37 in Calm     85.2% 0.00 in 153 W/m2
07:49 54.2 °F 49.8 °F 30.37 in Calm     85% 0.00 in 169 W/m2
07:54 54.8 °F 50.2 °F 30.37 in Calm     84.2% 0.00 in 181 W/m2
07:59 55.3 °F 50.4 °F 30.37 in Calm     83.4% 0.00 in 199 W/m2
08:04 55.7 °F 50.5 °F 30.37 in Calm     82.6% 0.00 in 214 W/m2
08:09 56 °F 50.6 °F 30.37 in Calm     82% 0.00 in 232 W/m2
08:14 56.6 °F 50.9 °F 30.37 in Calm     81.2% 0.00 in 241 W/m2
08:19 57.2 °F 51.3 °F 30.37 in Calm     80.8% 0.00 in 264 W/m2
08:24 58 °F 51.6 °F 30.37 in Calm     79.4% 0.00 in 279 W/m2
08:29 58.9 °F 51.9 °F 30.37 in Calm     77.4% 0.00 in 297 W/m2
08:34 59.4 °F 51.5 °F 30.37 in WNW 0.2 mph 1 mph 75.2% 0.00 in 313 W/m2
08:39 59.9 °F 51.8 °F 30.37 in WNW 0.2 mph 2 mph 74.4% 0.00 in 327 W/m2
08:44 60.7 °F 52.2 °F 30.37 in WNW 0.8 mph 2 mph 73.4% 0.00 in 343 W/m2
08:49 61.2 °F 52.1 °F 30.37 in WNW 0.4 mph 2 mph 72.2% 0.00 in 359 W/m2
08:54 61.3 °F 52.2 °F 30.37 in WNW 0.2 mph 2 mph 72% 0.00 in 373 W/m2
08:59 62 °F 52.4 °F 30.37 in WNW 1 mph 2 mph 71% 0.00 in 387 W/m2
09:04 62.6 °F 52.9 °F 30.37 in WNW 0.7 mph 2 mph 70.6% 0.00 in 401 W/m2
09:09 63.3 °F 53.2 °F 30.37 in SSW 3.2 mph 6 mph 69.4% 0.00 in 418 W/m2
09:14 64 °F 53.2 °F 30.37 in SSE 1.6 mph 4 mph 68.2% 0.00 in 431 W/m2
09:19 64.8 °F 53.8 °F 30.37 in SSE 1.3 mph 3 mph 67.4% 0.00 in 441 W/m2
09:24 65.3 °F 53.9 °F 30.37 in SSE 0.9 mph 3 mph 66.6% 0.00 in 454 W/m2
09:29 65.8 °F 54.7 °F 30.37 in SSE 2.4 mph 5 mph 67.4% 0.00 in 466 W/m2
09:34 66.4 °F 55 °F 30.37 in ENE 2 mph 5 mph 67% 0.00 in 476 W/m2
09:39 66.5 °F 55 °F 30.37 in SE 2.8 mph 5 mph 66.6% 0.00 in 489 W/m2
09:43 66.5 °F 55 °F 30.37 in ESE 1.7 mph 5 mph 66.5% 0.00 in 499 W/m2
09:49 67.1 °F 55 °F 30.36 in SE 1.9 mph 5 mph 65.2% 0.00 in 510 W/m2
09:54 67.5 °F 54.9 °F 30.36 in SE 2.5 mph 5 mph 64% 0.00 in 522 W/m2
09:59 67.5 °F 54.6 °F 30.36 in SSE 2.1 mph 6 mph 63.4% 0.00 in 534 W/m2
10:04 67.1 °F 54.4 °F 30.36 in SSE 3.6 mph 6 mph 63.6% 0.00 in 545 W/m2
10:09 67.2 °F 54.2 °F 30.36 in SSE 3.1 mph 7 mph 63% 0.00 in 557 W/m2
10:14 67.7 °F 54.3 °F 30.36 in SE 2.8 mph 6 mph 62.2% 0.00 in 568 W/m2
10:19 68.2 °F 54.1 °F 30.35 in SE 1.6 mph 5 mph 61% 0.00 in 578 W/m2
10:24 68 °F 54 °F 30.35 in SE 2.5 mph 5 mph 61% 0.00 in 589 W/m2
10:29 67.7 °F 54.1 °F 30.35 in SSE 1.2 mph 4 mph 61.6% 0.00 in 599 W/m2
10:34 68.6 °F 54.5 °F 30.35 in South 3.4 mph 6 mph 60.8% 0.00 in 608 W/m2
10:39 68.7 °F 54.2 °F 30.35 in South 2.2 mph 6 mph 59.8% 0.00 in 619 W/m2
10:44 68.7 °F 54.4 °F 30.35 in South 2.8 mph 6 mph 60.2% 0.00 in 628 W/m2
10:49 68.9 °F 54.9 °F 30.35 in South 1.5 mph 4 mph 61% 0.00 in 635 W/m2
10:54 69.4 °F 54.9 °F 30.35 in SSW 1.6 mph 4 mph 60% 0.00 in 645 W/m2
10:59 69.8 °F 54.8 °F 30.35 in SSW 3.6 mph 6 mph 59% 0.00 in 654 W/m2
11:04 69.5 °F 54.7 °F 30.34 in SW 2.1 mph 6 mph 59.2% 0.00 in 661 W/m2
11:09 70.3 °F 55.3 °F 30.34 in South 2.4 mph 5 mph 59% 0.00 in 668 W/m2
11:14 71.2 °F 55.5 °F 30.34 in South 2.5 mph 5 mph 57.6% 0.00 in 679 W/m2
11:19 71 °F 55.4 °F 30.34 in SSW 2.1 mph 6 mph 57.8% 0.00 in 686 W/m2
11:24 70.9 °F 55.4 °F 30.34 in WNW 2.9 mph 7 mph 58% 0.00 in 693 W/m2
11:29 70.7 °F 55.3 °F 30.34 in WNW 2.4 mph 5 mph 58.2% 0.00 in 700 W/m2
11:34 70.9 °F 55.4 °F 30.34 in West 1.7 mph 5 mph 58% 0.00 in 705 W/m2
11:39 71.5 °F 55.7 °F 30.34 in NW 3.7 mph 6 mph 57.4% 0.00 in 714 W/m2
11:44 71.9 °F 55.7 °F 30.34 in NW 2.1 mph 7 mph 56.6% 0.00 in 722 W/m2
11:49 72.1 °F 55.4 °F 30.34 in NW 3.2 mph 7 mph 55.8% 0.00 in 728 W/m2
11:54 71.8 °F 55.1 °F 30.34 in West 3.2 mph 6 mph 55.8% 0.00 in 735 W/m2
11:59 72.1 °F 54.8 °F 30.34 in WSW 3.1 mph 7 mph 54.6% 0.00 in 744 W/m2
12:03 71.7 °F 54.7 °F 30.34 in SW 1.7 mph 7 mph 55.3% 0.00 in 749 W/m2
12:09 71.7 °F 55.1 °F 30.33 in SW 1.4 mph 4 mph 56% 0.00 in 758 W/m2
12:14 72.8 °F 55.5 °F 30.33 in SW 1 mph 3 mph 54.6% 0.00 in 763 W/m2
12:19 73.4 °F 55.5 °F 30.33 in SW 2.4 mph 5 mph 53.4% 0.00 in 761 W/m2
12:24 73.7 °F 55.6 °F 30.33 in WNW 2 mph 6 mph 53.2% 0.00 in 763 W/m2
12:29 73.5 °F 55.5 °F 30.33 in WNW 5.5 mph 9 mph 53.4% 0.00 in 763 W/m2
12:34 72.9 °F 54.9 °F 30.33 in WNW 3.1 mph 7 mph 53.4% 0.00 in 777 W/m2
12:39 72.9 °F 54.2 °F 30.32 in WNW 5.2 mph 9 mph 52.2% 0.00 in 775 W/m2
12:44 73 °F 53.7 °F 30.32 in West 5.2 mph 8 mph 51% 0.00 in 780 W/m2
12:49 73.3 °F 53.9 °F 30.32 in West 1.7 mph 6 mph 50.8% 0.00 in 788 W/m2
12:54 73.6 °F 54.2 °F 30.32 in SW 4 mph 9 mph 50.8% 0.00 in 789 W/m2
12:59 74.3 °F 54.7 °F 30.32 in WSW 1.2 mph 4 mph 50.4% 0.00 in 789 W/m2
13:04 75.2 °F 55.1 °F 30.32 in NW 3.5 mph 8 mph 49.8% 0.00 in 793 W/m2
13:09 75.1 °F 54.3 °F 30.32 in NNW 3.8 mph 8 mph 48.4% 0.00 in 761 W/m2
13:14 74.9 °F 54 °F 30.32 in NNE 4 mph 9 mph 48.3% 0.00 in 788 W/m2
13:19 75.5 °F 53.9 °F 30.32 in NNE 3.5 mph 10 mph 47% 0.00 in 796 W/m2
13:24 75 °F 53.9 °F 30.32 in WNW 4.4 mph 10 mph 47.8% 0.00 in 795 W/m2
13:29 74.8 °F 53.7 °F 30.31 in NNW 5.6 mph 12 mph 48% 0.00 in 796 W/m2
13:34 74.3 °F 53.3 °F 30.32 in NW 3.4 mph 7 mph 48% 0.00 in 793 W/m2
13:39 74.7 °F 53.5 °F 30.31 in WNW 1.3 mph 5 mph 47.8% 0.00 in 791 W/m2
13:44 75.1 °F 53.8 °F 30.31 in West 3.2 mph 7 mph 47.6% 0.00 in 791 W/m2
13:49 75.7 °F 53.7 °F 30.31 in WNW 4.6 mph 10 mph 46.4% 0.00 in 788 W/m2
13:54 75.4 °F 53.2 °F 30.31 in NW 5.7 mph 9 mph 46% 0.00 in 786 W/m2
13:59 75.2 °F 53.1 °F 30.31 in NW 4.8 mph 9 mph 46% 0.00 in 788 W/m2
14:04 75.5 °F 53 °F 30.31 in WSW 4.4 mph 7 mph 45.6% 0.00 in 784 W/m2
14:09 76.1 °F 53.6 °F 30.30 in WNW 3.6 mph 14 mph 45.6% 0.00 in 775 W/m2
14:14 76.3 °F 54.1 °F 30.30 in West 4.1 mph 9 mph 46.2% 0.00 in 772 W/m2
14:19 76.5 °F 54.6 °F 30.30 in WNW 4.2 mph 7 mph 46.8% 0.00 in 772 W/m2
14:24 76.3 °F 54.4 °F 30.30 in West 5.2 mph 10 mph 46.8% 0.00 in 766 W/m2
14:29 76 °F 54.9 °F 30.30 in West 3.1 mph 8 mph 47.8% 0.00 in 761 W/m2
14:34 76.7 °F 55.3 °F 30.30 in WNW 3.2 mph 6 mph 47.8% 0.00 in 758 W/m2
14:39 77 °F 55.5 °F 30.30 in WNW 2.9 mph 11 mph 47.6% 0.00 in 752 W/m2
14:44 76.7 °F 55.6 °F 30.30 in NNW 6.2 mph 11 mph 48% 0.00 in 749 W/m2
14:49 76.2 °F 55.2 °F 30.29 in WNW 4.7 mph 9 mph 48.2% 0.00 in 744 W/m2
14:54 76.6 °F 55.4 °F 30.29 in WNW 6.2 mph 11 mph 48% 0.00 in 742 W/m2
14:59 76.6 °F 55.2 °F 30.29 in NW 3.5 mph 9 mph 47.6% 0.00 in 735 W/m2
15:04 77.2 °F 54.9 °F 30.29 in NW 4 mph 8 mph 46% 0.00 in 728 W/m2
15:09 76.7 °F 54.3 °F 30.29 in WNW 4.4 mph 9 mph 45.8% 0.00 in 724 W/m2
15:14 77 °F 54.3 °F 30.29 in West 4.1 mph 9 mph 45.4% 0.00 in 721 W/m2
15:19 77.2 °F 54 °F 30.29 in WNW 4 mph 8 mph 44.8% 0.00 in 717 W/m2
15:24 77.2 °F 53.9 °F 30.29 in West 5.2 mph 11 mph 44.6% 0.00 in 710 W/m2
15:29 77.2 °F 53.4 °F 30.29 in West 7.2 mph 13 mph 43.8% 0.00 in 696 W/m2
15:34 76.6 °F 53.1 °F 30.29 in NW 7.2 mph 13 mph 44% 0.00 in 684 W/m2
15:39 76.3 °F 52.9 °F 30.29 in NNW 3.3 mph 12 mph 44.2% 0.00 in 682 W/m2
15:44 77 °F 53.3 °F 30.29 in NW 4.9 mph 9 mph 43.8% 0.00 in 675 W/m2
15:49 77.4 °F 53 °F 30.29 in WSW 5 mph 8 mph 42.8% 0.00 in 670 W/m2
15:54 77.5 °F 53.3 °F 30.28 in NW 4.6 mph 9 mph 43% 0.00 in 656 W/m2
15:59 77.6 °F 53.5 °F 30.28 in WNW 4.5 mph 8 mph 43.3% 0.00 in 652 W/m2
16:04 77.5 °F 54.3 °F 30.28 in WNW 3.8 mph 10 mph 44.6% 0.00 in 657 W/m2
16:09 77.5 °F 54.4 °F 30.28 in West 4.2 mph 9 mph 44.8% 0.00 in 635 W/m2
16:14 77.9 °F 54.8 °F 30.28 in NNW 5.6 mph 8 mph 44.8% 0.00 in 628 W/m2
16:19 77.7 °F 54.3 °F 30.28 in WNW 4.4 mph 9 mph 44.6% 0.00 in 619 W/m2
16:24 77.8 °F 55 °F 30.27 in NW 3.8 mph 7 mph 45.4% 0.00 in 613 W/m2
16:29 78.2 °F 55.6 °F 30.27 in North 3.3 mph 7 mph 45.8% 0.00 in 615 W/m2
16:34 78.8 °F 56.1 °F 30.27 in NNW 4 mph 10 mph 45.8% 0.00 in 589 W/m2
16:39 78.4 °F 56.2 °F 30.27 in NW 2.4 mph 8 mph 46.6% 0.00 in 592 W/m2
16:44 78.1 °F 56.3 °F 30.27 in WNW 4.8 mph 9 mph 47% 0.00 in 571 W/m2
16:49 78 °F 56.2 °F 30.27 in WNW 4.4 mph 8 mph 47% 0.00 in 555 W/m2
16:54 78.4 °F 56.3 °F 30.27 in NNW 4.2 mph 9 mph 46.8% 0.00 in 554 W/m2
16:59 77.7 °F 55.6 °F 30.27 in WNW 5 mph 10 mph 46.6% 0.00 in 534 W/m2
17:04 77.5 °F 55.9 °F 30.27 in NW 3.2 mph 9 mph 47.2% 0.00 in 522 W/m2
17:09 78.3 °F 56.6 °F 30.27 in NW 3.7 mph 9 mph 47.4% 0.00 in 508 W/m2
17:14 78.5 °F 56.6 °F 30.26 in WNW 3 mph 9 mph 47% 0.00 in 499 W/m2
17:19 78.4 °F 56.5 °F 30.26 in WNW 4.2 mph 10 mph 47% 0.00 in 490 W/m2
17:24 77.9 °F 56.3 °F 30.26 in WNW 4.4 mph 10 mph 47.2% 0.00 in 478 W/m2
17:29 77.9 °F 56.5 °F 30.26 in WNW 2.4 mph 6 mph 47.6% 0.00 in 466 W/m2
17:34 78.2 °F 56.6 °F 30.26 in NW 2.7 mph 6 mph 47.4% 0.00 in 454 W/m2
17:39 78.3 °F 56.6 °F 30.26 in NW 3.9 mph 10 mph 47.4% 0.00 in 443 W/m2
17:44 78.5 °F 57.3 °F 30.26 in North 4.3 mph 8 mph 48.2% 0.00 in 434 W/m2
17:49 79.2 °F 57.2 °F 30.26 in NW 5 mph 10 mph 47% 0.00 in 415 W/m2
17:54 78.6 °F 56.8 °F 30.26 in WNW 4.5 mph 10 mph 47.2% 0.00 in 397 W/m2
17:59 78.1 °F 57 °F 30.26 in WNW 6.6 mph 10 mph 48.4% 0.00 in 357 W/m2
18:04 77.5 °F 56.6 °F 30.26 in WNW 6.2 mph 11 mph 48.6% 0.00 in 320 W/m2
18:09 77.6 °F 56.9 °F 30.26 in WNW 4 mph 9 mph 49% 0.00 in 353 W/m2
18:14 78.3 °F 57.3 °F 30.26 in NNW 4.8 mph 9 mph 48.6% 0.00 in 348 W/m2
18:19 78.3 °F 57.2 °F 30.26 in NNW 4.1 mph 9 mph 48.4% 0.00 in 343 W/m2
18:24 78.1 °F 57.4 °F 30.26 in NNW 3.2 mph 7 mph 49% 0.00 in 278 W/m2
18:29 78.4 °F 57.6 °F 30.26 in North 3.5 mph 8 mph 48.8% 0.00 in 257 W/m2
18:34 78.3 °F 57.4 °F 30.26 in North 2 mph 8 mph 48.5% 0.00 in 221 W/m2
18:39 78.3 °F 57.6 °F 30.26 in NNW 2.1 mph 4 mph 49% 0.00 in 220 W/m2
18:44 78.5 °F 57.8 °F 30.26 in NNW 3.2 mph 7 mph 49% 0.00 in 237 W/m2
18:49 78.1 °F 57.6 °F 30.26 in NW 2.5 mph 8 mph 49.4% 0.00 in 244 W/m2
18:54 77.7 °F 57.6 °F 30.26 in WNW 4.5 mph 8 mph 50% 0.00 in 229 W/m2
18:59 77.4 °F 57.5 °F 30.26 in NW 3.6 mph 8 mph 50.4% 0.00 in 220 W/m2
19:04 77.6 °F 57.6 °F 30.25 in NW 2.8 mph 5 mph 50.2% 0.00 in 200 W/m2
19:09 77.7 °F 57.8 °F 30.26 in NNW 3.3 mph 7 mph 50.4% 0.00 in 197 W/m2
19:14 77.5 °F 57.7 °F 30.26 in NW 4.9 mph 8 mph 50.6% 0.00 in 181 W/m2
19:19 77.1 °F 57.7 °F 30.26 in NW 3.4 mph 7 mph 51% 0.00 in 163 W/m2
19:24 77.2 °F 57.8 °F 30.25 in WNW 3.5 mph 7 mph 51.3% 0.00 in 148 W/m2
19:29 76.8 °F 58.2 °F 30.25 in WNW 4.6 mph 8 mph 52.4% 0.00 in 135 W/m2
19:34 76.4 °F 58.1 °F 30.25 in WNW 4.6 mph 9 mph 53.2% 0.00 in 118 W/m2
19:39 76.1 °F 58.3 °F 30.26 in WNW 3.7 mph 8 mph 54% 0.00 in 102 W/m2
19:44 75.9 °F 58.3 °F 30.26 in NW 3.8 mph 6 mph 54.4% 0.00 in 90 W/m2
19:49 75.7 °F 58.5 °F 30.26 in NW 5.2 mph 9 mph 55% 0.00 in 77 W/m2
19:54 75.2 °F 58.5 °F 30.26 in WNW 5.5 mph 9 mph 56% 0.00 in 65 W/m2
19:59 74.7 °F 58.3 °F 30.26 in WNW 4.4 mph 8 mph 56.6% 0.00 in 54 W/m2
20:04 74.5 °F 58.5 °F 30.26 in WNW 5.3 mph 8 mph 57.4% 0.00 in 42 W/m2
20:09 74.1 °F 58.5 °F 30.26 in WNW 2.9 mph 7 mph 58% 0.00 in 33 W/m2
20:14 73.9 °F 58.3 °F 30.27 in WNW 2.5 mph 5 mph 58.2% 0.00 in 25 W/m2
20:19 73.8 °F 58.5 °F 30.27 in WNW 2.9 mph 5 mph 59% 0.00 in 18 W/m2
20:24 73.1 °F 58.1 °F 30.27 in WNW 3.6 mph 6 mph 59.2% 0.00 in 14 W/m2
20:28 72.6 °F 57.8 °F 30.27 in WNW 3 mph 8 mph 60% 0.00 in 12 W/m2
20:34 72.1 °F 58 °F 30.27 in WNW 2.1 mph 5 mph 61.2% 0.00 in 11 W/m2
20:39 71.9 °F 58.3 °F 30.27 in WNW 1.7 mph 6 mph 62.2% 0.00 in 9 W/m2
20:44 71.7 °F 58.4 °F 30.27 in WNW 0.6 mph 3 mph 63% 0.00 in 7 W/m2
20:49 71.5 °F 58.7 °F 30.27 in WNW 0.2 mph 1 mph 64% 0.00 in 5 W/m2
20:54 71.2 °F 58.5 °F 30.28 in WNW 0.7 mph 2 mph 64.4% 0.00 in 0 W/m2
20:59 70.6 °F 58.5 °F 30.28 in WNW 1.1 mph 3 mph 65.6% 0.00 in 0 W/m2
21:04 70.1 °F 58.5 °F 30.28 in WNW 2.2 mph 3 mph 66.8% 0.00 in 0 W/m2
21:09 69.5 °F 58.7 °F 30.28 in WNW 2.8 mph 4 mph 68.4% 0.00 in 0 W/m2
21:14 69.2 °F 58.9 °F 30.28 in WNW 3.7 mph 5 mph 70% 0.00 in 0 W/m2
21:19 68.9 °F 59.3 °F 30.28 in WNW 3.5 mph 5 mph 71.4% 0.00 in 0 W/m2
21:24 68.5 °F 59.5 °F 30.28 in WNW 2.5 mph 5 mph 73% 0.00 in 0 W/m2
21:29 68.2 °F 59.5 °F 30.28 in WNW 2.4 mph 5 mph 74.2% 0.00 in 0 W/m2
21:34 67.8 °F 59.5 °F 30.29 in WNW 3.1 mph 5 mph 75.2% 0.00 in 0 W/m2
21:39 67.6 °F 59.7 °F 30.29 in WNW 4.7 mph 7 mph 76% 0.00 in 0 W/m2
21:44 67.3 °F 59.5 °F 30.29 in WNW 4.5 mph 7 mph 76% 0.00 in 0 W/m2
21:49 67 °F 59.4 °F 30.29 in West 2.5 mph 6 mph 76.4% 0.00 in 0 W/m2
21:54 66.7 °F 59.4 °F 30.29 in West 2.5 mph 4 mph 77% 0.00 in 0 W/m2
21:59 66.7 °F 59.3 °F 30.29 in West 1.3 mph 4 mph 77% 0.00 in 0 W/m2
22:04 66.5 °F 59.1 °F 30.29 in West 2 mph 4 mph 77% 0.00 in 0 W/m2
22:09 66.3 °F 58.9 °F 30.29 in West 1.7 mph 4 mph 77% 0.00 in 0 W/m2
22:14 66 °F 58.6 °F 30.29 in West 1.1 mph 2 mph 77% 0.00 in 0 W/m2
22:19 65.8 °F 58.5 °F 30.29 in West 0.2 mph 2 mph 77% 0.00 in 0 W/m2
22:24 65.7 °F 58.4 °F 30.29 in West 0.6 mph 3 mph 77% 0.00 in 0 W/m2
22:29 65.6 °F 58.2 °F 30.29 in Calm     77% 0.00 in 0 W/m2
22:34 65.5 °F 58.1 °F 30.29 in West 0.4 mph 2 mph 77% 0.00 in 0 W/m2
22:39 65.4 °F 58 °F 30.29 in Calm   1 mph 77% 0.00 in 0 W/m2
22:44 65.1 °F 57.8 °F 30.30 in Calm   1 mph 77.2% 0.00 in 0 W/m2
22:49 64.7 °F 57.7 °F 30.29 in West 1.2 mph 3 mph 78% 0.00 in 0 W/m2
22:54 64.4 °F 57.8 °F 30.29 in West 1.3 mph 3 mph 79% 0.00 in 0 W/m2
22:59 64.2 °F 57.9 °F 30.30 in West 1.6 mph 3 mph 80% 0.00 in 0 W/m2
23:04 64 °F 57.7 °F 30.30 in West 2 mph 3 mph 80.3% 0.00 in 0 W/m2
23:09 63.8 °F 57.8 °F 30.30 in West 1.3 mph 3 mph 81% 0.00 in 0 W/m2
23:14 63.5 °F 57.7 °F 30.30 in West 0.8 mph 2 mph 81.6% 0.00 in 0 W/m2
23:19 63.3 °F 57.7 °F 30.30 in Calm     82% 0.00 in 0 W/m2
23:24 63.1 °F 57.6 °F 30.30 in West 0.2 mph 1 mph 82% 0.00 in 0 W/m2
23:29 63 °F 57.5 °F 30.30 in Calm   1 mph 82.2% 0.00 in 0 W/m2
23:34 62.9 °F 57.4 °F 30.30 in West 0.2 mph 1 mph 82.2% 0.00 in 0 W/m2
23:39 62.8 °F 57.2 °F 30.30 in Calm   1 mph 82% 0.00 in 0 W/m2
23:44 62.7 °F 57.1 °F 30.30 in Calm     82% 0.00 in 0 W/m2
23:49 62.4 °F 56.8 °F 30.31 in Calm     82% 0.00 in 0 W/m2
23:54 62.3 °F 57 °F 30.31 in West 0.4 mph 1 mph 82.8% 0.00 in 0 W/m2
23:59 62.2 °F 57 °F 30.31 in West 0.5 mph 2 mph 83% 0.00 in 0 W/m2
Bath Spa Weather
Compliments of Weather Underground - 2 mb